sensor_id;sensor_type;location;lat;lon;timestamp;pressure;altitude;pressure_sealevel;temperature
15062;BMP180;7630;50.306;8.566;2022-08-21T00:01:54;98025.00;;;19.30
15062;BMP180;7630;50.306;8.566;2022-08-21T00:05:55;98011.00;;;19.40
15062;BMP180;7630;50.306;8.566;2022-08-21T00:09:56;98012.00;;;18.30
15062;BMP180;7630;50.306;8.566;2022-08-21T00:13:57;98011.00;;;19.00
15062;BMP180;7630;50.306;8.566;2022-08-21T00:17:58;98005.00;;;19.50
15062;BMP180;7630;50.306;8.566;2022-08-21T00:22:00;97995.00;;;19.30
15062;BMP180;7630;50.306;8.566;2022-08-21T00:26:01;97997.00;;;19.20
15062;BMP180;7630;50.306;8.566;2022-08-21T00:30:04;98000.00;;;19.10
15062;BMP180;7630;50.306;8.566;2022-08-21T00:34:06;97998.00;;;19.10
15062;BMP180;7630;50.306;8.566;2022-08-21T00:38:09;97999.00;;;18.90
15062;BMP180;7630;50.306;8.566;2022-08-21T00:42:11;97993.00;;;18.90
15062;BMP180;7630;50.306;8.566;2022-08-21T00:46:14;97991.00;;;18.70
15062;BMP180;7630;50.306;8.566;2022-08-21T00:50:15;97998.00;;;18.60
15062;BMP180;7630;50.306;8.566;2022-08-21T00:54:20;98004.00;;;18.30
15062;BMP180;7630;50.306;8.566;2022-08-21T00:58:26;97990.00;;;17.70
15062;BMP180;7630;50.306;8.566;2022-08-21T01:02:29;97988.00;;;17.90
15062;BMP180;7630;50.306;8.566;2022-08-21T01:06:31;97988.00;;;18.80
15062;BMP180;7630;50.306;8.566;2022-08-21T01:10:33;97995.00;;;18.60
15062;BMP180;7630;50.306;8.566;2022-08-21T01:14:38;97984.00;;;18.90
15062;BMP180;7630;50.306;8.566;2022-08-21T01:18:41;97987.00;;;18.70
15062;BMP180;7630;50.306;8.566;2022-08-21T01:22:42;97991.00;;;18.60
15062;BMP180;7630;50.306;8.566;2022-08-21T01:26:43;97987.00;;;18.60
15062;BMP180;7630;50.306;8.566;2022-08-21T01:30:45;97986.00;;;18.60
15062;BMP180;7630;50.306;8.566;2022-08-21T01:34:48;97981.00;;;18.40
15062;BMP180;7630;50.306;8.566;2022-08-21T01:38:49;97986.00;;;18.40
15062;BMP180;7630;50.306;8.566;2022-08-21T01:42:50;97981.00;;;18.30
15062;BMP180;7630;50.306;8.566;2022-08-21T01:46:52;97984.00;;;18.30
15062;BMP180;7630;50.306;8.566;2022-08-21T01:50:54;97983.00;;;18.10
15062;BMP180;7630;50.306;8.566;2022-08-21T01:54:57;97986.00;;;18.10
15062;BMP180;7630;50.306;8.566;2022-08-21T01:58:58;97981.00;;;18.10
15062;BMP180;7630;50.306;8.566;2022-08-21T02:02:59;97974.00;;;17.50
15062;BMP180;7630;50.306;8.566;2022-08-21T02:07:01;97972.00;;;17.80
15062;BMP180;7630;50.306;8.566;2022-08-21T02:11:02;97970.00;;;18.20
15062;BMP180;7630;50.306;8.566;2022-08-21T02:15:05;97967.00;;;17.60
15062;BMP180;7630;50.306;8.566;2022-08-21T02:19:06;97969.00;;;17.50
15062;BMP180;7630;50.306;8.566;2022-08-21T02:23:08;97969.00;;;18.30
15062;BMP180;7630;50.306;8.566;2022-08-21T02:27:10;97957.00;;;18.30
15062;BMP180;7630;50.306;8.566;2022-08-21T02:31:13;97968.00;;;18.20
15062;BMP180;7630;50.306;8.566;2022-08-21T02:35:14;97965.00;;;18.00
15062;BMP180;7630;50.306;8.566;2022-08-21T02:39:15;97962.00;;;17.90
15062;BMP180;7630;50.306;8.566;2022-08-21T02:43:20;97972.00;;;17.90
15062;BMP180;7630;50.306;8.566;2022-08-21T02:47:22;97952.00;;;17.80
15062;BMP180;7630;50.306;8.566;2022-08-21T02:51:23;97954.00;;;17.80
15062;BMP180;7630;50.306;8.566;2022-08-21T02:55:27;97948.00;;;17.70
15062;BMP180;7630;50.306;8.566;2022-08-21T02:59:29;97952.00;;;17.60
15062;BMP180;7630;50.306;8.566;2022-08-21T03:03:30;97957.00;;;17.60
15062;BMP180;7630;50.306;8.566;2022-08-21T03:07:31;97957.00;;;17.00
15062;BMP180;7630;50.306;8.566;2022-08-21T03:11:32;97953.00;;;17.50
15062;BMP180;7630;50.306;8.566;2022-08-21T03:15:33;97947.00;;;17.60
15062;BMP180;7630;50.306;8.566;2022-08-21T03:19:35;97952.00;;;17.40
15062;BMP180;7630;50.306;8.566;2022-08-21T03:23:36;97958.00;;;17.60
15062;BMP180;7630;50.306;8.566;2022-08-21T03:27:39;97948.00;;;17.10
15062;BMP180;7630;50.306;8.566;2022-08-21T03:31:42;97953.00;;;17.50
15062;BMP180;7630;50.306;8.566;2022-08-21T03:35:46;97949.00;;;17.50
15062;BMP180;7630;50.306;8.566;2022-08-21T03:39:47;97949.00;;;17.40
15062;BMP180;7630;50.306;8.566;2022-08-21T03:43:48;97953.00;;;17.40
15062;BMP180;7630;50.306;8.566;2022-08-21T03:47:55;97954.00;;;17.30
15062;BMP180;7630;50.306;8.566;2022-08-21T03:51:56;97960.00;;;17.30
15062;BMP180;7630;50.306;8.566;2022-08-21T03:55:59;97956.00;;;17.20
15062;BMP180;7630;50.306;8.566;2022-08-21T04:00:00;97962.00;;;17.10
15062;BMP180;7630;50.306;8.566;2022-08-21T04:04:03;97962.00;;;17.10
15062;BMP180;7630;50.306;8.566;2022-08-21T04:08:06;97963.00;;;17.00
15062;BMP180;7630;50.306;8.566;2022-08-21T04:12:07;97968.00;;;17.00
15062;BMP180;7630;50.306;8.566;2022-08-21T04:16:09;97971.00;;;16.90
15062;BMP180;7630;50.306;8.566;2022-08-21T04:20:10;97978.00;;;16.90
15062;BMP180;7630;50.306;8.566;2022-08-21T04:24:11;97987.00;;;16.90
15062;BMP180;7630;50.306;8.566;2022-08-21T04:28:12;97986.00;;;17.10
15062;BMP180;7630;50.306;8.566;2022-08-21T04:32:22;97985.00;;;16.90
15062;BMP180;7630;50.306;8.566;2022-08-21T04:36:24;97986.00;;;16.70
15062;BMP180;7630;50.306;8.566;2022-08-21T04:40:27;97991.00;;;16.60
15062;BMP180;7630;50.306;8.566;2022-08-21T04:44:28;97997.00;;;16.80
15062;BMP180;7630;50.306;8.566;2022-08-21T04:48:29;98004.00;;;17.10
15062;BMP180;7630;50.306;8.566;2022-08-21T04:52:31;97868.00;;;17.10
15062;BMP180;7630;50.306;8.566;2022-08-21T04:56:38;97998.00;;;17.10
15062;BMP180;7630;50.306;8.566;2022-08-21T05:00:40;98000.00;;;17.20
15062;BMP180;7630;50.306;8.566;2022-08-21T05:04:44;98011.00;;;17.30
15062;BMP180;7630;50.306;8.566;2022-08-21T05:08:47;98010.00;;;17.40
15062;BMP180;7630;50.306;8.566;2022-08-21T05:12:49;98010.00;;;17.50
15062;BMP180;7630;50.306;8.566;2022-08-21T05:16:50;98008.00;;;17.60
15062;BMP180;7630;50.306;8.566;2022-08-21T05:20:52;98021.00;;;17.80
15062;BMP180;7630;50.306;8.566;2022-08-21T05:24:53;98012.00;;;17.90
15062;BMP180;7630;50.306;8.566;2022-08-21T05:28:55;98012.00;;;18.10
15062;BMP180;7630;50.306;8.566;2022-08-21T05:32:59;98009.00;;;18.40
15062;BMP180;7630;50.306;8.566;2022-08-21T05:37:01;98011.00;;;18.50
15062;BMP180;7630;50.306;8.566;2022-08-21T05:41:04;98016.00;;;18.60
15062;BMP180;7630;50.306;8.566;2022-08-21T05:45:06;98012.00;;;19.00
15062;BMP180;7630;50.306;8.566;2022-08-21T05:49:07;98011.00;;;19.30
15062;BMP180;7630;50.306;8.566;2022-08-21T05:53:08;98007.00;;;19.60
15062;BMP180;7630;50.306;8.566;2022-08-21T05:57:10;98017.00;;;19.90
15062;BMP180;7630;50.306;8.566;2022-08-21T06:01:11;98013.00;;;20.10
15062;BMP180;7630;50.306;8.566;2022-08-21T06:05:13;98026.00;;;20.20
15062;BMP180;7630;50.306;8.566;2022-08-21T06:09:16;98017.00;;;20.70
15062;BMP180;7630;50.306;8.566;2022-08-21T06:13:18;98028.00;;;21.30
15062;BMP180;7630;50.306;8.566;2022-08-21T06:17:20;98032.00;;;21.60
15062;BMP180;7630;50.306;8.566;2022-08-21T06:21:21;98030.00;;;22.10
15062;BMP180;7630;50.306;8.566;2022-08-21T06:25:22;98016.00;;;22.50
15062;BMP180;7630;50.306;8.566;2022-08-21T06:29:23;98027.00;;;23.00
15062;BMP180;7630;50.306;8.566;2022-08-21T06:33:24;98024.00;;;23.40
15062;BMP180;7630;50.306;8.566;2022-08-21T06:37:27;98021.00;;;24.00
15062;BMP180;7630;50.306;8.566;2022-08-21T06:41:28;98017.00;;;24.20
15062;BMP180;7630;50.306;8.566;2022-08-21T06:45:30;98014.00;;;24.80
15062;BMP180;7630;50.306;8.566;2022-08-21T06:49:33;98021.00;;;24.90
15062;BMP180;7630;50.306;8.566;2022-08-21T06:53:34;98027.00;;;25.40
15062;BMP180;7630;50.306;8.566;2022-08-21T06:57:36;98027.00;;;25.90
15062;BMP180;7630;50.306;8.566;2022-08-21T07:01:37;98022.00;;;25.90
15062;BMP180;7630;50.306;8.566;2022-08-21T07:05:38;98018.00;;;23.00
15062;BMP180;7630;50.306;8.566;2022-08-21T07:09:39;98029.00;;;24.70
15062;BMP180;7630;50.306;8.566;2022-08-21T07:13:40;98022.00;;;22.70
15062;BMP180;7630;50.306;8.566;2022-08-21T07:17:42;98018.00;;;24.00
15062;BMP180;7630;50.306;8.566;2022-08-21T07:21:43;98024.00;;;22.90
15062;BMP180;7630;50.306;8.566;2022-08-21T07:25:44;98014.00;;;22.90
15062;BMP180;7630;50.306;8.566;2022-08-21T07:29:45;98017.00;;;24.30
15062;BMP180;7630;50.306;8.566;2022-08-21T07:33:47;98021.00;;;25.80
15062;BMP180;7630;50.306;8.566;2022-08-21T07:37:49;98012.00;;;26.00
15062;BMP180;7630;50.306;8.566;2022-08-21T07:41:50;98010.00;;;23.80
15062;BMP180;7630;50.306;8.566;2022-08-21T07:45:52;98012.00;;;23.70
15062;BMP180;7630;50.306;8.566;2022-08-21T07:49:54;98001.00;;;25.00
15062;BMP180;7630;50.306;8.566;2022-08-21T07:53:57;98002.00;;;25.60
15062;BMP180;7630;50.306;8.566;2022-08-21T07:57:59;97995.00;;;25.60
15062;BMP180;7630;50.306;8.566;2022-08-21T08:02:01;97992.00;;;26.00
15062;BMP180;7630;50.306;8.566;2022-08-21T08:06:02;98001.00;;;26.80
15062;BMP180;7630;50.306;8.566;2022-08-21T08:10:07;97995.00;;;27.50
15062;BMP180;7630;50.306;8.566;2022-08-21T08:14:08;97995.00;;;25.70
15062;BMP180;7630;50.306;8.566;2022-08-21T08:18:09;97999.00;;;25.60
15062;BMP180;7630;50.306;8.566;2022-08-21T08:22:20;98003.00;;;26.70
15062;BMP180;7630;50.306;8.566;2022-08-21T08:26:21;98002.00;;;25.90
15062;BMP180;7630;50.306;8.566;2022-08-21T08:30:23;98000.00;;;25.40
15062;BMP180;7630;50.306;8.566;2022-08-21T08:34:24;97987.00;;;25.80
15062;BMP180;7630;50.306;8.566;2022-08-21T08:38:26;97990.00;;;26.20
15062;BMP180;7630;50.306;8.566;2022-08-21T08:42:34;97987.00;;;24.10
15062;BMP180;7630;50.306;8.566;2022-08-21T08:46:41;97989.00;;;26.40
15062;BMP180;7630;50.306;8.566;2022-08-21T08:50:52;97988.00;;;26.70
15062;BMP180;7630;50.306;8.566;2022-08-21T08:55:12;97981.00;;;25.80
15062;BMP180;7630;50.306;8.566;2022-08-21T08:59:23;97980.00;;;24.30
15062;BMP180;7630;50.306;8.566;2022-08-21T09:03:27;97981.00;;;26.00
15062;BMP180;7630;50.306;8.566;2022-08-21T09:07:40;97982.00;;;27.30
15062;BMP180;7630;50.306;8.566;2022-08-21T09:16:20;97966.00;;;27.80
15062;BMP180;7630;50.306;8.566;2022-08-21T09:20:35;97974.00;;;27.60
15062;BMP180;7630;50.306;8.566;2022-08-21T09:24:55;97976.00;;;26.80
15062;BMP180;7630;50.306;8.566;2022-08-21T09:28:58;97978.00;;;28.10
15062;BMP180;7630;50.306;8.566;2022-08-21T09:33:00;97973.00;;;28.80
15062;BMP180;7630;50.306;8.566;2022-08-21T09:37:01;97977.00;;;27.40
15062;BMP180;7630;50.306;8.566;2022-08-21T09:41:08;97971.00;;;26.60
15062;BMP180;7630;50.306;8.566;2022-08-21T09:45:14;97980.00;;;28.30
15062;BMP180;7630;50.306;8.566;2022-08-21T09:49:26;97979.00;;;27.00
15062;BMP180;7630;50.306;8.566;2022-08-21T09:53:27;97978.00;;;27.60
15062;BMP180;7630;50.306;8.566;2022-08-21T09:57:30;97969.00;;;26.90
15062;BMP180;7630;50.306;8.566;2022-08-21T10:01:48;97972.00;;;26.60
15062;BMP180;7630;50.306;8.566;2022-08-21T10:06:02;97957.00;;;26.30
15062;BMP180;7630;50.306;8.566;2022-08-21T10:10:07;97960.00;;;26.70
15062;BMP180;7630;50.306;8.566;2022-08-21T10:18:56;97943.00;;;27.90
15062;BMP180;7630;50.306;8.566;2022-08-21T10:27:33;97941.00;;;25.10
15062;BMP180;7630;50.306;8.566;2022-08-21T10:35:50;97944.00;;;26.60
15062;BMP180;7630;50.306;8.566;2022-08-21T10:44:34;97949.00;;;26.80
15062;BMP180;7630;50.306;8.566;2022-08-21T10:48:47;97941.00;;;28.30
15062;BMP180;7630;50.306;8.566;2022-08-21T10:53:22;97934.00;;;28.10
15062;BMP180;7630;50.306;8.566;2022-08-21T10:57:36;97927.00;;;28.10
15062;BMP180;7630;50.306;8.566;2022-08-21T11:05:47;97920.00;;;27.90
15062;BMP180;7630;50.306;8.566;2022-08-21T11:09:54;97930.00;;;28.20
15062;BMP180;7630;50.306;8.566;2022-08-21T11:14:09;97923.00;;;29.10
15062;BMP180;7630;50.306;8.566;2022-08-21T11:18:28;97920.00;;;30.30
15062;BMP180;7630;50.306;8.566;2022-08-21T11:22:41;97922.00;;;29.90
15062;BMP180;7630;50.306;8.566;2022-08-21T11:35:34;97916.00;;;29.10
15062;BMP180;7630;50.306;8.566;2022-08-21T11:56:46;97902.00;;;29.30
15062;BMP180;7630;50.306;8.566;2022-08-21T12:00:57;97897.00;;;30.40
15062;BMP180;7630;50.306;8.566;2022-08-21T12:05:08;97896.00;;;30.80
15062;BMP180;7630;50.306;8.566;2022-08-21T12:09:34;97892.00;;;29.10
15062;BMP180;7630;50.306;8.566;2022-08-21T12:13:39;97894.00;;;29.10
15062;BMP180;7630;50.306;8.566;2022-08-21T12:22:19;97893.00;;;31.40
15062;BMP180;7630;50.306;8.566;2022-08-21T12:26:26;97896.00;;;30.10
15062;BMP180;7630;50.306;8.566;2022-08-21T12:34:38;97903.00;;;34.10
15062;BMP180;7630;50.306;8.566;2022-08-21T12:39:04;97903.00;;;35.60
15062;BMP180;7630;50.306;8.566;2022-08-21T12:43:24;97888.00;;;31.00
15062;BMP180;7630;50.306;8.566;2022-08-21T12:47:34;97883.00;;;31.60
15062;BMP180;7630;50.306;8.566;2022-08-21T12:51:48;97867.00;;;29.60
15062;BMP180;7630;50.306;8.566;2022-08-21T12:55:48;97893.00;;;30.90
15062;BMP180;7630;50.306;8.566;2022-08-21T12:59:58;97890.00;;;30.50
15062;BMP180;7630;50.306;8.566;2022-08-21T13:04:09;97890.00;;;29.50
15062;BMP180;7630;50.306;8.566;2022-08-21T13:08:12;97887.00;;;30.00
15062;BMP180;7630;50.306;8.566;2022-08-21T13:12:16;97881.00;;;32.70
15062;BMP180;7630;50.306;8.566;2022-08-21T13:16:22;97873.00;;;30.50
15062;BMP180;7630;50.306;8.566;2022-08-21T13:20:27;97874.00;;;29.90
15062;BMP180;7630;50.306;8.566;2022-08-21T13:24:35;97869.00;;;30.70
15062;BMP180;7630;50.306;8.566;2022-08-21T13:28:40;97876.00;;;31.70
15062;BMP180;7630;50.306;8.566;2022-08-21T13:32:44;97864.00;;;30.70
15062;BMP180;7630;50.306;8.566;2022-08-21T13:36:46;97861.00;;;29.80
15062;BMP180;7630;50.306;8.566;2022-08-21T13:40:51;97861.00;;;29.60
15062;BMP180;7630;50.306;8.566;2022-08-21T13:44:53;97852.00;;;31.80
15062;BMP180;7630;50.306;8.566;2022-08-21T13:48:55;97857.00;;;33.20
15062;BMP180;7630;50.306;8.566;2022-08-21T13:53:05;97846.00;;;34.30
15062;BMP180;7630;50.306;8.566;2022-08-21T13:57:19;97851.00;;;36.90
15062;BMP180;7630;50.306;8.566;2022-08-21T14:01:38;97858.00;;;32.40
15062;BMP180;7630;50.306;8.566;2022-08-21T14:05:43;97847.00;;;30.90
15062;BMP180;7630;50.306;8.566;2022-08-21T14:09:45;97834.00;;;28.90
15062;BMP180;7630;50.306;8.566;2022-08-21T14:13:57;97843.00;;;27.30
15062;BMP180;7630;50.306;8.566;2022-08-21T14:18:13;97844.00;;;27.90
15062;BMP180;7630;50.306;8.566;2022-08-21T14:22:28;97834.00;;;31.20
15062;BMP180;7630;50.306;8.566;2022-08-21T14:26:30;97835.00;;;33.70
15062;BMP180;7630;50.306;8.566;2022-08-21T14:30:34;97839.00;;;34.10
15062;BMP180;7630;50.306;8.566;2022-08-21T14:34:36;97838.00;;;34.50
15062;BMP180;7630;50.306;8.566;2022-08-21T14:38:40;97836.00;;;34.90
15062;BMP180;7630;50.306;8.566;2022-08-21T14:42:41;97831.00;;;33.70
15062;BMP180;7630;50.306;8.566;2022-08-21T14:46:43;97830.00;;;32.80
15062;BMP180;7630;50.306;8.566;2022-08-21T14:50:46;97837.00;;;36.20
15062;BMP180;7630;50.306;8.566;2022-08-21T14:54:48;97830.00;;;36.30
15062;BMP180;7630;50.306;8.566;2022-08-21T14:58:50;97825.00;;;32.70
15062;BMP180;7630;50.306;8.566;2022-08-21T15:02:52;97826.00;;;29.60
15062;BMP180;7630;50.306;8.566;2022-08-21T15:06:53;97823.00;;;28.10
15062;BMP180;7630;50.306;8.566;2022-08-21T15:10:55;97824.00;;;32.90
15062;BMP180;7630;50.306;8.566;2022-08-21T15:14:58;97827.00;;;33.80
15062;BMP180;7630;50.306;8.566;2022-08-21T15:18:59;97840.00;;;33.70
15062;BMP180;7630;50.306;8.566;2022-08-21T15:23:01;97829.00;;;34.90
15062;BMP180;7630;50.306;8.566;2022-08-21T15:27:03;97830.00;;;35.60
15062;BMP180;7630;50.306;8.566;2022-08-21T15:31:06;97827.00;;;33.80
15062;BMP180;7630;50.306;8.566;2022-08-21T15:35:08;97830.00;;;31.50
15062;BMP180;7630;50.306;8.566;2022-08-21T15:39:09;97819.00;;;31.70
15062;BMP180;7630;50.306;8.566;2022-08-21T15:43:23;97823.00;;;29.90
15062;BMP180;7630;50.306;8.566;2022-08-21T15:47:33;97816.00;;;29.60
15062;BMP180;7630;50.306;8.566;2022-08-21T15:51:34;97824.00;;;30.90
15062;BMP180;7630;50.306;8.566;2022-08-21T15:55:38;97814.00;;;30.30
15062;BMP180;7630;50.306;8.566;2022-08-21T15:59:45;97818.00;;;31.40
15062;BMP180;7630;50.306;8.566;2022-08-21T16:03:47;97814.00;;;31.20
15062;BMP180;7630;50.306;8.566;2022-08-21T16:07:50;97816.00;;;31.10
15062;BMP180;7630;50.306;8.566;2022-08-21T16:11:51;97815.00;;;32.20
15062;BMP180;7630;50.306;8.566;2022-08-21T16:15:54;97823.00;;;30.60
15062;BMP180;7630;50.306;8.566;2022-08-21T16:19:56;97817.00;;;31.10
15062;BMP180;7630;50.306;8.566;2022-08-21T16:23:58;97814.00;;;31.60
15062;BMP180;7630;50.306;8.566;2022-08-21T16:28:00;97812.00;;;30.70
15062;BMP180;7630;50.306;8.566;2022-08-21T16:32:03;97804.00;;;31.40
15062;BMP180;7630;50.306;8.566;2022-08-21T16:36:06;97805.00;;;32.20
15062;BMP180;7630;50.306;8.566;2022-08-21T16:40:09;97807.00;;;29.90
15062;BMP180;7630;50.306;8.566;2022-08-21T16:44:11;97796.00;;;30.60
15062;BMP180;7630;50.306;8.566;2022-08-21T16:48:12;97787.00;;;30.30
15062;BMP180;7630;50.306;8.566;2022-08-21T16:52:13;97784.00;;;29.30
15062;BMP180;7630;50.306;8.566;2022-08-21T16:56:16;97781.00;;;28.50
15062;BMP180;7630;50.306;8.566;2022-08-21T17:00:18;97786.00;;;29.60
15062;BMP180;7630;50.306;8.566;2022-08-21T17:04:20;97789.00;;;28.80
15062;BMP180;7630;50.306;8.566;2022-08-21T17:08:21;97791.00;;;29.50
15062;BMP180;7630;50.306;8.566;2022-08-21T17:12:22;97786.00;;;29.40
15062;BMP180;7630;50.306;8.566;2022-08-21T17:16:25;97778.00;;;28.60
15062;BMP180;7630;50.306;8.566;2022-08-21T17:20:27;97776.00;;;27.90
15062;BMP180;7630;50.306;8.566;2022-08-21T17:24:28;97776.00;;;28.20
15062;BMP180;7630;50.306;8.566;2022-08-21T17:28:31;97778.00;;;28.40
15062;BMP180;7630;50.306;8.566;2022-08-21T17:32:33;97772.00;;;27.80
15062;BMP180;7630;50.306;8.566;2022-08-21T17:36:34;97769.00;;;27.00
15062;BMP180;7630;50.306;8.566;2022-08-21T17:40:36;97765.00;;;26.40
15062;BMP180;7630;50.306;8.566;2022-08-21T17:44:40;97773.00;;;26.70
15062;BMP180;7630;50.306;8.566;2022-08-21T17:48:42;97773.00;;;27.20
15062;BMP180;7630;50.306;8.566;2022-08-21T17:52:45;97769.00;;;27.00
15062;BMP180;7630;50.306;8.566;2022-08-21T17:56:46;97776.00;;;26.90
15062;BMP180;7630;50.306;8.566;2022-08-21T18:00:48;97787.00;;;26.30
15062;BMP180;7630;50.306;8.566;2022-08-21T18:04:49;97776.00;;;26.50
15062;BMP180;7630;50.306;8.566;2022-08-21T18:08:51;97774.00;;;26.60
15062;BMP180;7630;50.306;8.566;2022-08-21T18:12:53;97779.00;;;26.50
15062;BMP180;7630;50.306;8.566;2022-08-21T18:16:55;97781.00;;;26.30
15062;BMP180;7630;50.306;8.566;2022-08-21T18:20:56;97790.00;;;26.40
15062;BMP180;7630;50.306;8.566;2022-08-21T18:24:58;97785.00;;;26.60
15062;BMP180;7630;50.306;8.566;2022-08-21T18:28:59;97796.00;;;25.70
15062;BMP180;7630;50.306;8.566;2022-08-21T18:33:01;97792.00;;;26.50
15062;BMP180;7630;50.306;8.566;2022-08-21T18:37:03;97801.00;;;27.00
15062;BMP180;7630;50.306;8.566;2022-08-21T18:41:04;97804.00;;;27.10
15062;BMP180;7630;50.306;8.566;2022-08-21T18:45:17;97810.00;;;26.60
15062;BMP180;7630;50.306;8.566;2022-08-21T18:49:18;97810.00;;;26.30
15062;BMP180;7630;50.306;8.566;2022-08-21T18:53:22;97810.00;;;26.20
15062;BMP180;7630;50.306;8.566;2022-08-21T18:57:28;97810.00;;;26.20
15062;BMP180;7630;50.306;8.566;2022-08-21T19:01:30;97822.00;;;25.80
15062;BMP180;7630;50.306;8.566;2022-08-21T19:05:32;97828.00;;;25.60
15062;BMP180;7630;50.306;8.566;2022-08-21T19:09:33;97819.00;;;25.60
15062;BMP180;7630;50.306;8.566;2022-08-21T19:13:34;97823.00;;;24.90
15062;BMP180;7630;50.306;8.566;2022-08-21T19:17:37;97831.00;;;24.90
15062;BMP180;7630;50.306;8.566;2022-08-21T19:21:38;97833.00;;;24.90
15062;BMP180;7630;50.306;8.566;2022-08-21T19:25:46;97836.00;;;24.60
15062;BMP180;7630;50.306;8.566;2022-08-21T19:29:47;97832.00;;;24.40
15062;BMP180;7630;50.306;8.566;2022-08-21T19:34:11;97835.00;;;24.30
15062;BMP180;7630;50.306;8.566;2022-08-21T19:38:10;97836.00;;;24.00
15062;BMP180;7630;50.306;8.566;2022-08-21T19:42:12;97836.00;;;23.90
15062;BMP180;7630;50.306;8.566;2022-08-21T19:46:21;97840.00;;;23.90
15062;BMP180;7630;50.306;8.566;2022-08-21T19:50:22;97842.00;;;23.90
15062;BMP180;7630;50.306;8.566;2022-08-21T19:54:30;97835.00;;;23.70
15062;BMP180;7630;50.306;8.566;2022-08-21T19:58:36;97839.00;;;23.70
15062;BMP180;7630;50.306;8.566;2022-08-21T20:02:38;97841.00;;;23.50
15062;BMP180;7630;50.306;8.566;2022-08-21T20:06:44;97844.00;;;23.40
15062;BMP180;7630;50.306;8.566;2022-08-21T20:10:46;97836.00;;;23.20
15062;BMP180;7630;50.306;8.566;2022-08-21T20:14:52;97840.00;;;23.20
15062;BMP180;7630;50.306;8.566;2022-08-21T20:18:54;97835.00;;;23.20
15062;BMP180;7630;50.306;8.566;2022-08-21T20:22:56;97840.00;;;23.10
15062;BMP180;7630;50.306;8.566;2022-08-21T20:27:01;97853.00;;;23.00
15062;BMP180;7630;50.306;8.566;2022-08-21T20:31:05;97842.00;;;22.90
15062;BMP180;7630;50.306;8.566;2022-08-21T20:35:09;97844.00;;;22.80
15062;BMP180;7630;50.306;8.566;2022-08-21T20:39:13;97846.00;;;22.20
15062;BMP180;7630;50.306;8.566;2022-08-21T20:43:15;97851.00;;;22.60
15062;BMP180;7630;50.306;8.566;2022-08-21T20:47:16;97846.00;;;22.80
15062;BMP180;7630;50.306;8.566;2022-08-21T20:51:39;97847.00;;;22.80
15062;BMP180;7630;50.306;8.566;2022-08-21T20:55:44;97856.00;;;22.70
15062;BMP180;7630;50.306;8.566;2022-08-21T20:59:51;97861.00;;;22.60
15062;BMP180;7630;50.306;8.566;2022-08-21T21:03:57;97858.00;;;22.10
15062;BMP180;7630;50.306;8.566;2022-08-21T21:08:23;97863.00;;;22.60
15062;BMP180;7630;50.306;8.566;2022-08-21T21:12:27;97868.00;;;22.70
15062;BMP180;7630;50.306;8.566;2022-08-21T21:16:32;97864.00;;;22.40
15062;BMP180;7630;50.306;8.566;2022-08-21T21:20:41;97864.00;;;22.30
15062;BMP180;7630;50.306;8.566;2022-08-21T21:25:25;97860.00;;;21.10
15062;BMP180;7630;50.306;8.566;2022-08-21T21:29:22;97863.00;;;21.80
15062;BMP180;7630;50.306;8.566;2022-08-21T21:33:22;97873.00;;;21.00
15062;BMP180;7630;50.306;8.566;2022-08-21T21:37:31;97875.00;;;21.30
15062;BMP180;7630;50.306;8.566;2022-08-21T21:41:58;97882.00;;;21.30
15062;BMP180;7630;50.306;8.566;2022-08-21T21:50:44;97883.00;;;21.40
15062;BMP180;7630;50.306;8.566;2022-08-21T22:03:17;97876.00;;;21.90
15062;BMP180;7630;50.306;8.566;2022-08-21T22:07:24;97880.00;;;23.30
15062;BMP180;7630;50.306;8.566;2022-08-21T22:11:53;97879.00;;;23.50
15062;BMP180;7630;50.306;8.566;2022-08-21T22:16:13;97880.00;;;23.20
15062;BMP180;7630;50.306;8.566;2022-08-21T22:20:31;97884.00;;;23.10
15062;BMP180;7630;50.306;8.566;2022-08-21T22:24:35;97876.00;;;22.70
15062;BMP180;7630;50.306;8.566;2022-08-21T22:28:40;97893.00;;;22.40
15062;BMP180;7630;50.306;8.566;2022-08-21T22:32:46;97876.00;;;22.40
15062;BMP180;7630;50.306;8.566;2022-08-21T22:36:57;97871.00;;;22.40
15062;BMP180;7630;50.306;8.566;2022-08-21T22:41:24;97875.00;;;22.10
15062;BMP180;7630;50.306;8.566;2022-08-21T22:45:30;97875.00;;;22.20
15062;BMP180;7630;50.306;8.566;2022-08-21T22:49:41;97868.00;;;22.10
15062;BMP180;7630;50.306;8.566;2022-08-21T22:53:46;97877.00;;;21.90
15062;BMP180;7630;50.306;8.566;2022-08-21T22:58:11;97878.00;;;21.80
15062;BMP180;7630;50.306;8.566;2022-08-21T23:06:51;97874.00;;;21.30
15062;BMP180;7630;50.306;8.566;2022-08-21T23:10:59;97871.00;;;21.20
15062;BMP180;7630;50.306;8.566;2022-08-21T23:15:07;97874.00;;;21.00
15062;BMP180;7630;50.306;8.566;2022-08-21T23:23:24;97875.00;;;21.10
15062;BMP180;7630;50.306;8.566;2022-08-21T23:36:21;97867.00;;;20.80
15062;BMP180;7630;50.306;8.566;2022-08-21T23:40:42;97879.00;;;20.50
